sensor_id;sensor_type;location;lat;lon;timestamp;pressure;altitude;pressure_sealevel;temperature;humidity
11712;BME280;5912;51.034;6.984;2023-03-04T00:01:24;56646.81;;;-142.13;65.36
11712;BME280;5912;51.034;6.984;2023-03-04T00:03:50;56632.78;;;-142.13;65.51
11712;BME280;5912;51.034;6.984;2023-03-04T00:06:15;56634.78;;;-142.13;65.50
11712;BME280;5912;51.034;6.984;2023-03-04T00:08:40;56648.81;;;-142.13;65.63
11712;BME280;5912;51.034;6.984;2023-03-04T00:11:05;56650.81;;;-142.13;65.53
11712;BME280;5912;51.034;6.984;2023-03-04T00:13:31;56616.75;;;-142.13;65.47
11712;BME280;5912;51.034;6.984;2023-03-04T00:15:56;56648.81;;;-142.13;65.70
11712;BME280;5912;51.034;6.984;2023-03-04T00:18:22;56602.72;;;-142.13;65.30
11712;BME280;5912;51.034;6.984;2023-03-04T00:20:47;56612.75;;;-142.13;65.30
11712;BME280;5912;51.034;6.984;2023-03-04T00:23:14;56588.69;;;-142.13;65.11
11712;BME280;5912;51.034;6.984;2023-03-04T00:25:39;56646.81;;;-142.13;65.49
11712;BME280;5912;51.034;6.984;2023-03-04T00:28:04;56634.78;;;-142.13;65.44
11712;BME280;5912;51.034;6.984;2023-03-04T00:30:30;56634.78;;;-142.13;65.47
11712;BME280;5912;51.034;6.984;2023-03-04T00:32:55;56644.81;;;-142.13;64.84
11712;BME280;5912;51.034;6.984;2023-03-04T00:35:20;56664.84;;;-142.13;64.90
11712;BME280;5912;51.034;6.984;2023-03-04T00:37:45;56630.78;;;-142.13;65.29
11712;BME280;5912;51.034;6.984;2023-03-04T00:40:11;56620.75;;;-142.13;65.63
11712;BME280;5912;51.034;6.984;2023-03-04T00:42:37;56628.78;;;-142.13;65.30
11712;BME280;5912;51.034;6.984;2023-03-04T00:45:02;56622.75;;;-142.13;65.06
11712;BME280;5912;51.034;6.984;2023-03-04T00:47:27;56658.81;;;-142.13;65.12
11712;BME280;5912;51.034;6.984;2023-03-04T00:49:53;56624.75;;;-142.13;65.14
11712;BME280;5912;51.034;6.984;2023-03-04T00:52:18;56648.81;;;-142.13;64.97
11712;BME280;5912;51.034;6.984;2023-03-04T00:54:43;56620.75;;;-142.13;65.11
11712;BME280;5912;51.034;6.984;2023-03-04T00:57:09;56606.75;;;-142.13;64.90
11712;BME280;5912;51.034;6.984;2023-03-04T00:59:34;56632.78;;;-142.13;65.33
11712;BME280;5912;51.034;6.984;2023-03-04T01:01:59;56632.78;;;-142.13;65.47
11712;BME280;5912;51.034;6.984;2023-03-04T01:04:25;56620.75;;;-142.13;65.30
11712;BME280;5912;51.034;6.984;2023-03-04T01:06:50;56600.72;;;-142.13;65.29
11712;BME280;5912;51.034;6.984;2023-03-04T01:09:15;56614.75;;;-142.13;64.68
11712;BME280;5912;51.034;6.984;2023-03-04T01:11:41;56616.75;;;-142.13;65.12
11712;BME280;5912;51.034;6.984;2023-03-04T01:14:06;56664.84;;;-142.13;64.56
11712;BME280;5912;51.034;6.984;2023-03-04T01:16:31;56642.78;;;-142.13;65.21
11712;BME280;5912;51.034;6.984;2023-03-04T01:18:57;56632.78;;;-142.13;65.37
11712;BME280;5912;51.034;6.984;2023-03-04T01:21:22;56616.75;;;-142.13;64.75
11712;BME280;5912;51.034;6.984;2023-03-04T01:26:56;56634.78;;;-142.13;65.26
11712;BME280;5912;51.034;6.984;2023-03-04T01:29:21;56672.84;;;-142.13;64.90
11712;BME280;5912;51.034;6.984;2023-03-04T01:31:46;56642.78;;;-142.13;65.12
11712;BME280;5912;51.034;6.984;2023-03-04T01:34:12;56632.78;;;-142.13;64.91
11712;BME280;5912;51.034;6.984;2023-03-04T01:36:37;56616.75;;;-142.13;64.59
11712;BME280;5912;51.034;6.984;2023-03-04T01:39:03;56640.78;;;-142.13;64.76
11712;BME280;5912;51.034;6.984;2023-03-04T01:41:29;56720.94;;;-142.13;64.85
11712;BME280;5912;51.034;6.984;2023-03-04T01:43:58;56606.75;;;-142.13;65.12
11712;BME280;5912;51.034;6.984;2023-03-04T01:46:25;56606.75;;;-142.13;64.78
11712;BME280;5912;51.034;6.984;2023-03-04T01:48:51;56640.78;;;-142.13;64.76
11712;BME280;5912;51.034;6.984;2023-03-04T01:51:17;56620.75;;;-142.13;64.92
11712;BME280;5912;51.034;6.984;2023-03-04T01:53:45;56628.78;;;-142.13;65.17
11712;BME280;5912;51.034;6.984;2023-03-04T01:58:36;56624.75;;;-142.13;64.52
11712;BME280;5912;51.034;6.984;2023-03-04T02:01:01;56612.75;;;-142.13;64.93
11712;BME280;5912;51.034;6.984;2023-03-04T02:03:27;56626.78;;;-142.13;64.88
11712;BME280;5912;51.034;6.984;2023-03-04T02:05:52;56620.75;;;-142.13;64.83
11712;BME280;5912;51.034;6.984;2023-03-04T02:08:20;56598.72;;;-142.13;64.97
11712;BME280;5912;51.034;6.984;2023-03-04T02:10:47;56616.75;;;-142.13;65.37
11712;BME280;5912;51.034;6.984;2023-03-04T02:13:14;56652.81;;;-142.13;65.06
11712;BME280;5912;51.034;6.984;2023-03-04T02:15:41;56638.78;;;-142.13;64.96
11712;BME280;5912;51.034;6.984;2023-03-04T02:18:22;56622.75;;;-142.13;65.30
11712;BME280;5912;51.034;6.984;2023-03-04T02:21:06;56622.75;;;-142.13;65.13
11712;BME280;5912;51.034;6.984;2023-03-04T02:26:21;56612.75;;;-142.13;65.31
11712;BME280;5912;51.034;6.984;2023-03-04T02:28:48;56632.78;;;-142.13;64.98
11712;BME280;5912;51.034;6.984;2023-03-04T02:33:49;56642.78;;;-142.13;65.37
11712;BME280;5912;51.034;6.984;2023-03-04T02:36:15;56632.78;;;-142.13;64.92
11712;BME280;5912;51.034;6.984;2023-03-04T02:38:40;56640.78;;;-142.13;65.14
11712;BME280;5912;51.034;6.984;2023-03-04T02:41:10;56620.75;;;-142.13;65.04
11712;BME280;5912;51.034;6.984;2023-03-04T02:43:36;56604.72;;;-142.13;64.62
11712;BME280;5912;51.034;6.984;2023-03-04T02:46:02;56640.78;;;-142.13;65.22
11712;BME280;5912;51.034;6.984;2023-03-04T02:48:27;56640.78;;;-142.13;65.30
11712;BME280;5912;51.034;6.984;2023-03-04T02:50:52;56620.75;;;-142.13;65.32
11712;BME280;5912;51.034;6.984;2023-03-04T02:53:19;56642.78;;;-142.13;65.32
11712;BME280;5912;51.034;6.984;2023-03-04T02:55:45;56624.75;;;-142.13;65.44
11712;BME280;5912;51.034;6.984;2023-03-04T02:58:11;56624.75;;;-142.13;65.34
11712;BME280;5912;51.034;6.984;2023-03-04T03:00:36;56638.78;;;-142.13;65.11
11712;BME280;5912;51.034;6.984;2023-03-04T03:03:02;56630.78;;;-142.13;64.83
11712;BME280;5912;51.034;6.984;2023-03-04T03:05:29;56592.72;;;-142.13;64.82
11712;BME280;5912;51.034;6.984;2023-03-04T03:07:55;56642.78;;;-142.13;65.26
11712;BME280;5912;51.034;6.984;2023-03-04T03:10:20;56602.72;;;-142.13;65.33
11712;BME280;5912;51.034;6.984;2023-03-04T03:12:45;56640.78;;;-142.13;65.05
11712;BME280;5912;51.034;6.984;2023-03-04T03:15:11;56646.81;;;-142.13;64.80
11712;BME280;5912;51.034;6.984;2023-03-04T03:17:37;56805.06;;;-142.13;65.06
11712;BME280;5912;51.034;6.984;2023-03-04T03:20:02;56640.78;;;-142.13;65.27
11712;BME280;5912;51.034;6.984;2023-03-04T03:22:28;56616.75;;;-142.13;64.84
11712;BME280;5912;51.034;6.984;2023-03-04T03:24:53;56640.78;;;-142.13;65.06
11712;BME280;5912;51.034;6.984;2023-03-04T03:27:18;56624.75;;;-142.13;64.88
11712;BME280;5912;51.034;6.984;2023-03-04T03:29:44;56616.75;;;-142.13;64.96
11712;BME280;5912;51.034;6.984;2023-03-04T03:32:09;56630.78;;;-142.13;65.23
11712;BME280;5912;51.034;6.984;2023-03-04T03:34:35;56634.78;;;-142.13;65.15
11712;BME280;5912;51.034;6.984;2023-03-04T03:37:00;56636.78;;;-142.13;64.80
11712;BME280;5912;51.034;6.984;2023-03-04T03:39:25;56660.81;;;-142.13;64.90
11712;BME280;5912;51.034;6.984;2023-03-04T03:41:51;56618.75;;;-142.13;64.91
11712;BME280;5912;51.034;6.984;2023-03-04T03:44:16;56648.81;;;-142.13;64.92
11712;BME280;5912;51.034;6.984;2023-03-04T03:46:41;56644.81;;;-142.13;64.68
11712;BME280;5912;51.034;6.984;2023-03-04T03:49:06;56618.75;;;-142.13;64.94
11712;BME280;5912;51.034;6.984;2023-03-04T03:51:32;56646.81;;;-142.13;65.26
11712;BME280;5912;51.034;6.984;2023-03-04T03:53:57;56618.75;;;-142.13;65.14
11712;BME280;5912;51.034;6.984;2023-03-04T03:56:22;56640.78;;;-142.13;64.64
11712;BME280;5912;51.034;6.984;2023-03-04T03:58:48;56624.75;;;-142.13;65.22
11712;BME280;5912;51.034;6.984;2023-03-04T04:01:13;56616.75;;;-142.13;64.77
11712;BME280;5912;51.034;6.984;2023-03-04T04:03:38;56616.75;;;-142.13;65.32
11712;BME280;5912;51.034;6.984;2023-03-04T04:06:04;56640.78;;;-142.13;65.17
11712;BME280;5912;51.034;6.984;2023-03-04T04:08:29;56644.81;;;-142.13;64.82
11712;BME280;5912;51.034;6.984;2023-03-04T04:10:54;56666.84;;;-142.13;65.42
11712;BME280;5912;51.034;6.984;2023-03-04T04:13:20;56642.78;;;-142.13;64.91
11712;BME280;5912;51.034;6.984;2023-03-04T04:15:45;56642.78;;;-142.13;64.96
11712;BME280;5912;51.034;6.984;2023-03-04T04:18:10;56626.78;;;-142.13;64.96
11712;BME280;5912;51.034;6.984;2023-03-04T04:20:36;56644.81;;;-142.13;64.90
11712;BME280;5912;51.034;6.984;2023-03-04T04:23:02;56640.78;;;-142.13;65.08
11712;BME280;5912;51.034;6.984;2023-03-04T04:25:27;56656.81;;;-142.13;65.39
11712;BME280;5912;51.034;6.984;2023-03-04T04:27:53;56658.81;;;-142.13;65.16
11712;BME280;5912;51.034;6.984;2023-03-04T04:30:18;56592.72;;;-142.13;64.88
11712;BME280;5912;51.034;6.984;2023-03-04T04:32:44;56632.78;;;-142.13;64.61
11712;BME280;5912;51.034;6.984;2023-03-04T04:35:09;56666.84;;;-142.13;64.74
11712;BME280;5912;51.034;6.984;2023-03-04T04:37:34;56636.78;;;-142.13;65.11
11712;BME280;5912;51.034;6.984;2023-03-04T04:40:00;56642.78;;;-142.13;65.16
11712;BME280;5912;51.034;6.984;2023-03-04T04:42:25;56610.75;;;-142.13;65.14
11712;BME280;5912;51.034;6.984;2023-03-04T04:44:51;56594.72;;;-142.13;64.88
11712;BME280;5912;51.034;6.984;2023-03-04T04:47:17;56640.78;;;-142.13;64.84
11712;BME280;5912;51.034;6.984;2023-03-04T04:49:42;56624.75;;;-142.13;65.46
11712;BME280;5912;51.034;6.984;2023-03-04T04:52:07;56622.75;;;-142.13;64.97
11712;BME280;5912;51.034;6.984;2023-03-04T04:54:33;56636.78;;;-142.13;65.51
11712;BME280;5912;51.034;6.984;2023-03-04T04:56:58;56640.78;;;-142.13;65.18
11712;BME280;5912;51.034;6.984;2023-03-04T04:59:23;56634.78;;;-142.13;65.34
11712;BME280;5912;51.034;6.984;2023-03-04T05:01:49;56648.81;;;-142.13;65.30
11712;BME280;5912;51.034;6.984;2023-03-04T05:04:14;56616.75;;;-142.13;65.24
11712;BME280;5912;51.034;6.984;2023-03-04T05:06:40;56622.75;;;-142.13;65.04
11712;BME280;5912;51.034;6.984;2023-03-04T05:09:05;56624.75;;;-142.13;65.03
11712;BME280;5912;51.034;6.984;2023-03-04T05:11:31;56644.81;;;-142.13;65.07
11712;BME280;5912;51.034;6.984;2023-03-04T05:13:56;56610.75;;;-142.13;65.54
11712;BME280;5912;51.034;6.984;2023-03-04T05:16:22;56640.78;;;-142.13;64.85
11712;BME280;5912;51.034;6.984;2023-03-04T05:18:47;56644.81;;;-142.13;65.49
11712;BME280;5912;51.034;6.984;2023-03-04T05:21:12;56650.81;;;-142.13;65.01
11712;BME280;5912;51.034;6.984;2023-03-04T05:23:41;56632.78;;;-142.13;65.10
11712;BME280;5912;51.034;6.984;2023-03-04T05:26:09;56688.88;;;-142.13;65.56
11712;BME280;5912;51.034;6.984;2023-03-04T05:28:35;56616.75;;;-142.13;65.28
11712;BME280;5912;51.034;6.984;2023-03-04T05:31:01;56622.75;;;-142.13;65.54
11712;BME280;5912;51.034;6.984;2023-03-04T05:33:27;56612.75;;;-142.13;65.44
11712;BME280;5912;51.034;6.984;2023-03-04T05:35:52;56640.78;;;-142.13;65.31
11712;BME280;5912;51.034;6.984;2023-03-04T05:38:19;56620.75;;;-142.13;65.56
11712;BME280;5912;51.034;6.984;2023-03-04T05:40:45;56618.75;;;-142.13;65.22
11712;BME280;5912;51.034;6.984;2023-03-04T05:43:11;56600.72;;;-142.13;65.24
11712;BME280;5912;51.034;6.984;2023-03-04T05:45:37;56616.75;;;-142.13;65.21
11712;BME280;5912;51.034;6.984;2023-03-04T05:48:03;56642.78;;;-142.13;65.89
11712;BME280;5912;51.034;6.984;2023-03-04T05:50:29;56610.75;;;-142.13;65.58
11712;BME280;5912;51.034;6.984;2023-03-04T05:52:55;56636.78;;;-142.13;65.58
11712;BME280;5912;51.034;6.984;2023-03-04T05:55:20;56638.78;;;-142.13;65.78
11712;BME280;5912;51.034;6.984;2023-03-04T05:57:45;56624.75;;;-142.13;65.42
11712;BME280;5912;51.034;6.984;2023-03-04T06:00:12;56652.81;;;-142.13;65.46
11712;BME280;5912;51.034;6.984;2023-03-04T06:02:39;56614.75;;;-142.13;66.02
11712;BME280;5912;51.034;6.984;2023-03-04T06:05:05;56622.75;;;-142.13;65.93
11712;BME280;5912;51.034;6.984;2023-03-04T06:07:31;56628.78;;;-142.13;65.77
11712;BME280;5912;51.034;6.984;2023-03-04T06:09:56;56668.84;;;-142.13;65.73
11712;BME280;5912;51.034;6.984;2023-03-04T06:12:22;56640.78;;;-142.13;65.36
11712;BME280;5912;51.034;6.984;2023-03-04T06:14:47;56620.75;;;-142.13;65.77
11712;BME280;5912;51.034;6.984;2023-03-04T06:17:13;56612.75;;;-142.13;66.00
11712;BME280;5912;51.034;6.984;2023-03-04T06:19:38;56592.72;;;-142.13;65.50
11712;BME280;5912;51.034;6.984;2023-03-04T06:22:06;56588.69;;;-142.13;65.50
11712;BME280;5912;51.034;6.984;2023-03-04T06:24:31;56610.75;;;-142.13;65.75
11712;BME280;5912;51.034;6.984;2023-03-04T06:26:56;56640.78;;;-142.13;65.91
11712;BME280;5912;51.034;6.984;2023-03-04T06:29:22;56640.78;;;-142.13;65.72
11712;BME280;5912;51.034;6.984;2023-03-04T06:31:47;56620.75;;;-142.13;65.84
11712;BME280;5912;51.034;6.984;2023-03-04T06:34:12;56612.75;;;-142.13;65.47
11712;BME280;5912;51.034;6.984;2023-03-04T06:36:38;56618.75;;;-142.13;65.49
11712;BME280;5912;51.034;6.984;2023-03-04T06:39:05;56638.78;;;-142.13;65.16
11712;BME280;5912;51.034;6.984;2023-03-04T06:41:30;56624.75;;;-142.13;65.39
11712;BME280;5912;51.034;6.984;2023-03-04T06:43:56;56612.75;;;-142.13;65.21
11712;BME280;5912;51.034;6.984;2023-03-04T06:46:22;56592.72;;;-142.13;64.85
11712;BME280;5912;51.034;6.984;2023-03-04T06:48:47;56630.78;;;-142.13;64.59
11712;BME280;5912;51.034;6.984;2023-03-04T06:51:13;56612.75;;;-142.13;64.71
11712;BME280;5912;51.034;6.984;2023-03-04T06:53:39;56576.69;;;-142.13;64.50
11712;BME280;5912;51.034;6.984;2023-03-04T06:56:06;56568.66;;;-142.13;64.57
11712;BME280;5912;51.034;6.984;2023-03-04T06:58:32;56604.72;;;-142.13;63.97
11712;BME280;5912;51.034;6.984;2023-03-04T07:01:23;56616.75;;;-142.13;64.31
11712;BME280;5912;51.034;6.984;2023-03-04T07:03:51;56592.72;;;-142.13;63.80
11712;BME280;5912;51.034;6.984;2023-03-04T07:06:19;56596.72;;;-142.13;64.12
11712;BME280;5912;51.034;6.984;2023-03-04T07:08:45;56582.69;;;-142.13;64.05
11712;BME280;5912;51.034;6.984;2023-03-04T07:11:11;56592.72;;;-142.13;63.78
11712;BME280;5912;51.034;6.984;2023-03-04T07:13:37;56576.69;;;-142.13;63.85
11712;BME280;5912;51.034;6.984;2023-03-04T07:16:11;56548.63;;;-142.13;63.62
11712;BME280;5912;51.034;6.984;2023-03-04T07:18:37;56594.72;;;-142.13;63.84
11712;BME280;5912;51.034;6.984;2023-03-04T07:21:04;56568.66;;;-142.13;64.13
11712;BME280;5912;51.034;6.984;2023-03-04T07:23:29;56626.78;;;-142.13;63.28
11712;BME280;5912;51.034;6.984;2023-03-04T07:25:55;56582.69;;;-142.13;63.37
11712;BME280;5912;51.034;6.984;2023-03-04T07:28:20;56572.69;;;-142.13;63.44
11712;BME280;5912;51.034;6.984;2023-03-04T07:30:45;56576.69;;;-142.13;63.25
11712;BME280;5912;51.034;6.984;2023-03-04T07:33:12;56580.69;;;-142.13;63.87
11712;BME280;5912;51.034;6.984;2023-03-04T07:35:38;56574.69;;;-142.13;63.56
11712;BME280;5912;51.034;6.984;2023-03-04T07:38:04;56598.72;;;-142.13;63.69
11712;BME280;5912;51.034;6.984;2023-03-04T07:40:29;56590.72;;;-142.13;63.02
11712;BME280;5912;51.034;6.984;2023-03-04T07:42:55;56556.66;;;-142.13;62.92
11712;BME280;5912;51.034;6.984;2023-03-04T07:45:21;56588.69;;;-142.13;62.84
11712;BME280;5912;51.034;6.984;2023-03-04T07:47:47;56582.69;;;-142.13;62.61
11712;BME280;5912;51.034;6.984;2023-03-04T07:50:13;56566.66;;;-142.13;62.22
11712;BME280;5912;51.034;6.984;2023-03-04T07:52:40;56588.69;;;-142.13;62.70
11712;BME280;5912;51.034;6.984;2023-03-04T07:55:06;56572.69;;;-142.13;62.17
11712;BME280;5912;51.034;6.984;2023-03-04T07:57:31;56594.72;;;-142.13;62.33
11712;BME280;5912;51.034;6.984;2023-03-04T07:59:57;56592.72;;;-142.13;61.97
11712;BME280;5912;51.034;6.984;2023-03-04T08:02:22;56564.66;;;-142.13;61.73
11712;BME280;5912;51.034;6.984;2023-03-04T08:04:47;56572.69;;;-142.13;61.22
11712;BME280;5912;51.034;6.984;2023-03-04T08:07:12;56568.66;;;-142.13;61.02
11712;BME280;5912;51.034;6.984;2023-03-04T08:09:38;56578.69;;;-142.13;60.60
11712;BME280;5912;51.034;6.984;2023-03-04T08:12:03;56572.69;;;-142.13;60.67
11712;BME280;5912;51.034;6.984;2023-03-04T08:14:28;56580.69;;;-142.13;60.35
11712;BME280;5912;51.034;6.984;2023-03-04T08:16:54;56574.69;;;-142.13;60.39
11712;BME280;5912;51.034;6.984;2023-03-04T08:19:19;56560.66;;;-142.13;59.99
11712;BME280;5912;51.034;6.984;2023-03-04T08:21:45;56560.66;;;-142.13;59.74
11712;BME280;5912;51.034;6.984;2023-03-04T08:24:10;56574.69;;;-142.13;59.37
11712;BME280;5912;51.034;6.984;2023-03-04T08:26:38;56580.69;;;-142.13;59.74
11712;BME280;5912;51.034;6.984;2023-03-04T08:29:06;56574.69;;;-142.13;59.47
11712;BME280;5912;51.034;6.984;2023-03-04T08:31:32;56576.69;;;-142.13;59.40
11712;BME280;5912;51.034;6.984;2023-03-04T08:33:57;56602.72;;;-142.13;59.63
11712;BME280;5912;51.034;6.984;2023-03-04T08:36:23;56564.66;;;-142.13;59.18
11712;BME280;5912;51.034;6.984;2023-03-04T08:38:48;56584.69;;;-142.13;59.40
11712;BME280;5912;51.034;6.984;2023-03-04T08:41:14;56554.66;;;-142.13;59.77
11712;BME280;5912;51.034;6.984;2023-03-04T08:43:40;56600.72;;;-142.13;59.77
11712;BME280;5912;51.034;6.984;2023-03-04T08:46:05;56564.66;;;-142.13;59.45
11712;BME280;5912;51.034;6.984;2023-03-04T08:48:31;56568.66;;;-142.13;59.40
11712;BME280;5912;51.034;6.984;2023-03-04T08:50:57;56536.63;;;-142.13;59.92
11712;BME280;5912;51.034;6.984;2023-03-04T08:53:22;56546.63;;;-142.13;60.12
11712;BME280;5912;51.034;6.984;2023-03-04T08:55:49;56554.66;;;-142.13;60.13
11712;BME280;5912;51.034;6.984;2023-03-04T08:58:15;56552.66;;;-142.13;60.29
11712;BME280;5912;51.034;6.984;2023-03-04T09:00:43;56566.66;;;-142.13;59.62
11712;BME280;5912;51.034;6.984;2023-03-04T09:03:10;56538.63;;;-142.13;59.68
11712;BME280;5912;51.034;6.984;2023-03-04T09:05:36;56560.66;;;-142.13;59.52
11712;BME280;5912;51.034;6.984;2023-03-04T09:08:01;56564.66;;;-142.13;59.25
11712;BME280;5912;51.034;6.984;2023-03-04T09:10:27;56532.63;;;-142.13;59.43
11712;BME280;5912;51.034;6.984;2023-03-04T09:12:52;56548.63;;;-142.13;58.95
11712;BME280;5912;51.034;6.984;2023-03-04T09:15:18;56538.63;;;-142.13;57.38
11712;BME280;5912;51.034;6.984;2023-03-04T09:17:43;56510.56;;;-142.13;56.45
11712;BME280;5912;51.034;6.984;2023-03-04T09:20:10;56492.53;;;-142.13;55.34
11712;BME280;5912;51.034;6.984;2023-03-04T09:22:37;56520.59;;;-142.13;53.34
11712;BME280;5912;51.034;6.984;2023-03-04T09:25:03;56522.59;;;-142.13;52.19
11712;BME280;5912;51.034;6.984;2023-03-04T09:27:28;56454.47;;;-142.13;50.80
11712;BME280;5912;51.034;6.984;2023-03-04T09:29:53;56496.56;;;-142.13;51.03
11712;BME280;5912;51.034;6.984;2023-03-04T09:32:19;56488.53;;;-142.13;51.06
11712;BME280;5912;51.034;6.984;2023-03-04T09:34:44;56512.59;;;-142.13;51.46
11712;BME280;5912;51.034;6.984;2023-03-04T09:37:09;56500.56;;;-142.13;51.63
11712;BME280;5912;51.034;6.984;2023-03-04T09:39:35;56516.59;;;-142.13;51.21
11712;BME280;5912;51.034;6.984;2023-03-04T09:42:01;56472.50;;;-142.13;51.72
11712;BME280;5912;51.034;6.984;2023-03-04T09:44:30;56488.53;;;-142.13;50.43
11712;BME280;5912;51.034;6.984;2023-03-04T09:47:00;56490.53;;;-142.13;51.24
11712;BME280;5912;51.034;6.984;2023-03-04T09:49:26;56502.56;;;-142.13;52.33
11712;BME280;5912;51.034;6.984;2023-03-04T10:03:20;56516.59;;;-142.13;53.90
11712;BME280;5912;51.034;6.984;2023-03-04T10:05:53;56508.56;;;-142.13;54.34
11712;BME280;5912;51.034;6.984;2023-03-04T10:11:12;56502.56;;;-142.13;54.72
11712;BME280;5912;51.034;6.984;2023-03-04T10:16:10;56516.59;;;-142.13;53.87
11712;BME280;5912;51.034;6.984;2023-03-04T10:18:43;56520.59;;;-142.13;53.49
11712;BME280;5912;51.034;6.984;2023-03-04T10:21:31;56514.59;;;-142.13;53.54
11712;BME280;5912;51.034;6.984;2023-03-04T10:24:10;56496.56;;;-142.13;53.99
11712;BME280;5912;51.034;6.984;2023-03-04T10:26:36;56512.59;;;-142.13;54.97
11712;BME280;5912;51.034;6.984;2023-03-04T10:29:02;56544.63;;;-142.13;55.64
11712;BME280;5912;51.034;6.984;2023-03-04T10:31:36;56494.56;;;-142.13;55.25
11712;BME280;5912;51.034;6.984;2023-03-04T10:34:03;56498.56;;;-142.13;54.50
11712;BME280;5912;51.034;6.984;2023-03-04T10:36:32;56494.56;;;-142.13;54.96
11712;BME280;5912;51.034;6.984;2023-03-04T10:39:15;56508.56;;;-142.13;54.79
11712;BME280;5912;51.034;6.984;2023-03-04T10:41:44;56446.47;;;-142.13;54.13
11712;BME280;5912;51.034;6.984;2023-03-04T10:46:40;56504.56;;;-142.13;52.76
11712;BME280;5912;51.034;6.984;2023-03-04T10:49:06;56472.50;;;-142.13;52.22
11712;BME280;5912;51.034;6.984;2023-03-04T10:51:41;56500.56;;;-142.13;51.61
11712;BME280;5912;51.034;6.984;2023-03-04T10:54:10;56494.56;;;-142.13;52.80
11712;BME280;5912;51.034;6.984;2023-03-04T10:56:42;56498.56;;;-142.13;53.25
11712;BME280;5912;51.034;6.984;2023-03-04T10:59:48;56488.53;;;-142.13;54.20
11712;BME280;5912;51.034;6.984;2023-03-04T11:07:21;56518.59;;;-142.13;55.06
11712;BME280;5912;51.034;6.984;2023-03-04T11:09:47;56490.53;;;-142.13;54.29
11712;BME280;5912;51.034;6.984;2023-03-04T11:12:15;56472.50;;;-142.13;51.63
11712;BME280;5912;51.034;6.984;2023-03-04T11:14:45;56534.63;;;-142.13;50.62
11712;BME280;5912;51.034;6.984;2023-03-04T11:19:46;56432.44;;;-142.13;46.59
11712;BME280;5912;51.034;6.984;2023-03-04T11:22:17;56406.41;;;-142.13;45.46
11712;BME280;5912;51.034;6.984;2023-03-04T11:24:59;56426.44;;;-142.13;44.31
11712;BME280;5912;51.034;6.984;2023-03-04T11:27:47;56404.41;;;-142.13;44.18
11712;BME280;5912;51.034;6.984;2023-03-04T11:32:50;56422.44;;;-142.13;44.64
11712;BME280;5912;51.034;6.984;2023-03-04T11:35:28;56434.44;;;-142.13;44.96
11712;BME280;5912;51.034;6.984;2023-03-04T11:38:19;56408.41;;;-142.13;45.37
11712;BME280;5912;51.034;6.984;2023-03-04T11:40:58;56460.50;;;-142.13;45.84
11712;BME280;5912;51.034;6.984;2023-03-04T11:43:41;56424.44;;;-142.13;46.35
11712;BME280;5912;51.034;6.984;2023-03-04T11:55:32;56448.47;;;-142.13;47.99
11712;BME280;5912;51.034;6.984;2023-03-04T11:58:08;56476.53;;;-142.13;49.05
11712;BME280;5912;51.034;6.984;2023-03-04T12:00:53;56474.53;;;-142.13;49.38
11712;BME280;5912;51.034;6.984;2023-03-04T12:06:34;56488.53;;;-142.13;50.39
11712;BME280;5912;51.034;6.984;2023-03-04T12:09:02;56500.56;;;-142.13;50.71
11712;BME280;5912;51.034;6.984;2023-03-04T12:21:21;56506.56;;;-142.13;49.43
11712;BME280;5912;51.034;6.984;2023-03-04T12:27:31;56498.56;;;-142.13;49.31
11712;BME280;5912;51.034;6.984;2023-03-04T12:41:21;56458.50;;;-142.13;50.40
11712;BME280;5912;51.034;6.984;2023-03-04T12:44:15;56486.53;;;-142.13;49.17
11712;BME280;5912;51.034;6.984;2023-03-04T12:49:45;56464.50;;;-142.13;48.35
11712;BME280;5912;51.034;6.984;2023-03-04T12:54:49;56488.53;;;-142.13;48.41
11712;BME280;5912;51.034;6.984;2023-03-04T12:57:18;56458.50;;;-142.13;48.69
11712;BME280;5912;51.034;6.984;2023-03-04T13:03:00;56448.47;;;-142.13;48.59
11712;BME280;5912;51.034;6.984;2023-03-04T13:10:45;56492.53;;;-142.13;48.24
11712;BME280;5912;51.034;6.984;2023-03-04T13:13:34;56466.50;;;-142.13;47.85
11712;BME280;5912;51.034;6.984;2023-03-04T13:18:36;56466.50;;;-142.13;48.35
11712;BME280;5912;51.034;6.984;2023-03-04T13:21:18;56456.50;;;-142.13;48.91
11712;BME280;5912;51.034;6.984;2023-03-04T13:23:45;56476.53;;;-142.13;48.78
11712;BME280;5912;51.034;6.984;2023-03-04T13:26:22;56464.50;;;-142.13;48.52
11712;BME280;5912;51.034;6.984;2023-03-04T13:29:10;56478.53;;;-142.13;48.81
11712;BME280;5912;51.034;6.984;2023-03-04T13:32:36;56474.53;;;-142.13;48.09
11712;BME280;5912;51.034;6.984;2023-03-04T13:36:05;56494.56;;;-142.13;48.05
11712;BME280;5912;51.034;6.984;2023-03-04T13:41:10;56464.50;;;-142.13;48.86
11712;BME280;5912;51.034;6.984;2023-03-04T13:43:41;56460.50;;;-142.13;49.31
11712;BME280;5912;51.034;6.984;2023-03-04T13:48:44;56482.53;;;-142.13;49.34
11712;BME280;5912;51.034;6.984;2023-03-04T13:56:32;56470.50;;;-142.13;50.43
11712;BME280;5912;51.034;6.984;2023-03-04T14:04:20;56478.53;;;-142.13;52.58
11712;BME280;5912;51.034;6.984;2023-03-04T14:06:48;56482.53;;;-142.13;52.86
11712;BME280;5912;51.034;6.984;2023-03-04T14:09:15;56524.59;;;-142.13;54.30
11712;BME280;5912;51.034;6.984;2023-03-04T14:11:44;56506.56;;;-142.13;55.09
11712;BME280;5912;51.034;6.984;2023-03-04T14:14:33;56506.56;;;-142.13;55.56
11712;BME280;5912;51.034;6.984;2023-03-04T14:17:03;56480.53;;;-142.13;55.43
11712;BME280;5912;51.034;6.984;2023-03-04T14:19:37;56512.59;;;-142.13;56.21
11712;BME280;5912;51.034;6.984;2023-03-04T14:22:20;56528.59;;;-142.13;56.06
11712;BME280;5912;51.034;6.984;2023-03-04T14:25:04;56516.59;;;-142.13;56.04
11712;BME280;5912;51.034;6.984;2023-03-04T14:27:33;56508.56;;;-142.13;56.93
11712;BME280;5912;51.034;6.984;2023-03-04T14:30:02;56528.59;;;-142.13;57.15
11712;BME280;5912;51.034;6.984;2023-03-04T14:32:28;56508.56;;;-142.13;57.03
11712;BME280;5912;51.034;6.984;2023-03-04T14:35:01;56480.53;;;-142.13;56.54
11712;BME280;5912;51.034;6.984;2023-03-04T14:37:41;56496.56;;;-142.13;56.69
11712;BME280;5912;51.034;6.984;2023-03-04T14:43:23;56494.56;;;-142.13;57.22
11712;BME280;5912;51.034;6.984;2023-03-04T14:45:54;56512.59;;;-142.13;56.55
11712;BME280;5912;51.034;6.984;2023-03-04T14:48:30;56546.63;;;-142.13;56.22